sensor_id;sensor_type;location;lat;lon;timestamp;P1;durP1;ratioP1;P2;durP2;ratioP2
37781;SDS011;23621;50.878;4.584;2023-05-07T00:02:23;7.35;;;4.95;;
37781;SDS011;23621;50.878;4.584;2023-05-07T00:05:10;8.07;;;4.90;;
37781;SDS011;23621;50.878;4.584;2023-05-07T00:07:58;5.82;;;5.00;;
37781;SDS011;23621;50.878;4.584;2023-05-07T00:10:46;6.97;;;5.68;;
37781;SDS011;23621;50.878;4.584;2023-05-07T00:13:33;7.10;;;4.93;;
37781;SDS011;23621;50.878;4.584;2023-05-07T00:16:22;6.75;;;5.03;;
37781;SDS011;23621;50.878;4.584;2023-05-07T00:19:09;7.13;;;4.93;;
37781;SDS011;23621;50.878;4.584;2023-05-07T00:21:56;6.75;;;5.53;;
37781;SDS011;23621;50.878;4.584;2023-05-07T00:24:44;6.13;;;4.80;;
37781;SDS011;23621;50.878;4.584;2023-05-07T00:27:31;6.18;;;5.00;;
37781;SDS011;23621;50.878;4.584;2023-05-07T00:30:19;6.43;;;4.80;;
37781;SDS011;23621;50.878;4.584;2023-05-07T00:33:06;6.55;;;5.70;;
37781;SDS011;23621;50.878;4.584;2023-05-07T00:35:53;5.68;;;5.05;;
37781;SDS011;23621;50.878;4.584;2023-05-07T00:38:41;5.57;;;4.80;;
37781;SDS011;23621;50.878;4.584;2023-05-07T00:41:28;6.82;;;5.35;;
37781;SDS011;23621;50.878;4.584;2023-05-07T00:44:17;8.32;;;5.53;;
37781;SDS011;23621;50.878;4.584;2023-05-07T00:47:04;7.43;;;5.05;;
37781;SDS011;23621;50.878;4.584;2023-05-07T00:49:52;7.57;;;5.55;;
37781;SDS011;23621;50.878;4.584;2023-05-07T00:52:39;6.22;;;5.28;;
37781;SDS011;23621;50.878;4.584;2023-05-07T00:55:28;6.57;;;5.18;;
37781;SDS011;23621;50.878;4.584;2023-05-07T00:58:16;7.03;;;5.32;;
37781;SDS011;23621;50.878;4.584;2023-05-07T01:01:03;7.97;;;5.65;;
37781;SDS011;23621;50.878;4.584;2023-05-07T01:03:51;6.03;;;5.47;;
37781;SDS011;23621;50.878;4.584;2023-05-07T01:06:38;6.78;;;5.80;;
37781;SDS011;23621;50.878;4.584;2023-05-07T01:09:27;7.15;;;5.32;;
37781;SDS011;23621;50.878;4.584;2023-05-07T01:12:15;8.35;;;5.45;;
37781;SDS011;23621;50.878;4.584;2023-05-07T01:15:03;6.32;;;5.70;;
37781;SDS011;23621;50.878;4.584;2023-05-07T01:17:51;8.32;;;6.22;;
37781;SDS011;23621;50.878;4.584;2023-05-07T01:20:39;6.80;;;5.85;;
37781;SDS011;23621;50.878;4.584;2023-05-07T01:23:26;8.02;;;5.63;;
37781;SDS011;23621;50.878;4.584;2023-05-07T01:26:14;7.05;;;6.40;;
37781;SDS011;23621;50.878;4.584;2023-05-07T01:29:01;7.53;;;6.00;;
37781;SDS011;23621;50.878;4.584;2023-05-07T01:31:49;6.78;;;6.03;;
37781;SDS011;23621;50.878;4.584;2023-05-07T01:34:38;6.97;;;5.72;;
37781;SDS011;23621;50.878;4.584;2023-05-07T01:37:26;7.15;;;5.72;;
37781;SDS011;23621;50.878;4.584;2023-05-07T01:40:14;8.48;;;6.25;;
37781;SDS011;23621;50.878;4.584;2023-05-07T01:43:02;6.25;;;5.55;;
37781;SDS011;23621;50.878;4.584;2023-05-07T01:45:50;7.55;;;5.70;;
37781;SDS011;23621;50.878;4.584;2023-05-07T01:48:39;6.30;;;5.65;;
37781;SDS011;23621;50.878;4.584;2023-05-07T01:51:27;8.18;;;5.60;;
37781;SDS011;23621;50.878;4.584;2023-05-07T01:54:14;7.13;;;5.90;;
37781;SDS011;23621;50.878;4.584;2023-05-07T01:57:01;7.10;;;6.13;;
37781;SDS011;23621;50.878;4.584;2023-05-07T01:59:49;6.10;;;5.50;;
37781;SDS011;23621;50.878;4.584;2023-05-07T02:02:36;6.88;;;6.15;;
37781;SDS011;23621;50.878;4.584;2023-05-07T02:05:25;6.88;;;5.78;;
37781;SDS011;23621;50.878;4.584;2023-05-07T02:08:12;8.85;;;6.50;;
37781;SDS011;23621;50.878;4.584;2023-05-07T02:10:59;9.65;;;6.47;;
37781;SDS011;23621;50.878;4.584;2023-05-07T02:13:46;9.05;;;6.55;;
37781;SDS011;23621;50.878;4.584;2023-05-07T02:16:34;7.50;;;6.20;;
37781;SDS011;23621;50.878;4.584;2023-05-07T02:19:21;6.63;;;5.95;;
37781;SDS011;23621;50.878;4.584;2023-05-07T02:22:09;10.45;;;6.63;;
37781;SDS011;23621;50.878;4.584;2023-05-07T02:24:56;6.60;;;6.00;;
37781;SDS011;23621;50.878;4.584;2023-05-07T02:27:43;6.90;;;6.20;;
37781;SDS011;23621;50.878;4.584;2023-05-07T02:30:31;7.28;;;6.45;;
37781;SDS011;23621;50.878;4.584;2023-05-07T02:33:21;9.85;;;6.90;;
37781;SDS011;23621;50.878;4.584;2023-05-07T02:36:08;7.38;;;6.50;;
37781;SDS011;23621;50.878;4.584;2023-05-07T02:38:57;7.30;;;6.57;;
37781;SDS011;23621;50.878;4.584;2023-05-07T02:41:47;8.40;;;6.35;;
37781;SDS011;23621;50.878;4.584;2023-05-07T02:44:34;7.20;;;6.10;;
37781;SDS011;23621;50.878;4.584;2023-05-07T02:47:22;8.98;;;6.80;;
37781;SDS011;23621;50.878;4.584;2023-05-07T02:50:09;8.63;;;6.57;;
37781;SDS011;23621;50.878;4.584;2023-05-07T02:52:57;9.05;;;7.00;;
37781;SDS011;23621;50.878;4.584;2023-05-07T02:55:45;9.05;;;6.93;;
37781;SDS011;23621;50.878;4.584;2023-05-07T02:58:32;7.63;;;6.82;;
37781;SDS011;23621;50.878;4.584;2023-05-07T03:01:20;7.22;;;6.50;;
37781;SDS011;23621;50.878;4.584;2023-05-07T03:04:07;8.38;;;6.85;;
37781;SDS011;23621;50.878;4.584;2023-05-07T03:06:54;7.65;;;6.30;;
37781;SDS011;23621;50.878;4.584;2023-05-07T03:09:42;6.95;;;6.25;;
37781;SDS011;23621;50.878;4.584;2023-05-07T03:12:32;8.35;;;6.75;;
37781;SDS011;23621;50.878;4.584;2023-05-07T03:15:19;7.00;;;6.25;;
37781;SDS011;23621;50.878;4.584;2023-05-07T03:18:06;8.15;;;6.90;;
37781;SDS011;23621;50.878;4.584;2023-05-07T03:20:54;7.90;;;6.80;;
37781;SDS011;23621;50.878;4.584;2023-05-07T03:23:41;8.18;;;7.22;;
37781;SDS011;23621;50.878;4.584;2023-05-07T03:26:29;8.90;;;6.80;;
37781;SDS011;23621;50.878;4.584;2023-05-07T03:29:16;7.60;;;6.90;;
37781;SDS011;23621;50.878;4.584;2023-05-07T03:32:03;9.93;;;7.47;;
37781;SDS011;23621;50.878;4.584;2023-05-07T03:34:52;8.50;;;6.80;;
37781;SDS011;23621;50.878;4.584;2023-05-07T03:37:39;9.35;;;6.82;;
37781;SDS011;23621;50.878;4.584;2023-05-07T03:40:27;8.05;;;6.47;;
37781;SDS011;23621;50.878;4.584;2023-05-07T03:43:15;8.68;;;7.78;;
37781;SDS011;23621;50.878;4.584;2023-05-07T03:46:02;7.57;;;6.88;;
37781;SDS011;23621;50.878;4.584;2023-05-07T03:48:49;8.98;;;6.57;;
37781;SDS011;23621;50.878;4.584;2023-05-07T03:51:37;9.93;;;6.53;;
37781;SDS011;23621;50.878;4.584;2023-05-07T03:54:24;7.15;;;6.40;;
37781;SDS011;23621;50.878;4.584;2023-05-07T03:57:11;9.32;;;6.40;;
37781;SDS011;23621;50.878;4.584;2023-05-07T03:59:58;8.52;;;7.20;;
37781;SDS011;23621;50.878;4.584;2023-05-07T04:02:46;7.63;;;6.90;;
37781;SDS011;23621;50.878;4.584;2023-05-07T04:05:33;10.82;;;6.47;;
37781;SDS011;23621;50.878;4.584;2023-05-07T04:08:21;8.40;;;6.40;;
37781;SDS011;23621;50.878;4.584;2023-05-07T04:11:08;7.50;;;6.70;;
37781;SDS011;23621;50.878;4.584;2023-05-07T04:13:55;7.18;;;6.30;;
37781;SDS011;23621;50.878;4.584;2023-05-07T04:16:42;9.13;;;6.30;;
37781;SDS011;23621;50.878;4.584;2023-05-07T04:19:29;9.23;;;6.78;;
37781;SDS011;23621;50.878;4.584;2023-05-07T04:22:17;7.10;;;6.00;;
37781;SDS011;23621;50.878;4.584;2023-05-07T04:25:04;6.93;;;6.22;;
37781;SDS011;23621;50.878;4.584;2023-05-07T04:27:52;6.85;;;6.15;;
37781;SDS011;23621;50.878;4.584;2023-05-07T04:30:42;7.45;;;6.65;;
37781;SDS011;23621;50.878;4.584;2023-05-07T04:33:29;9.48;;;6.60;;
37781;SDS011;23621;50.878;4.584;2023-05-07T04:36:16;9.57;;;7.10;;
37781;SDS011;23621;50.878;4.584;2023-05-07T04:39:03;8.90;;;6.75;;
37781;SDS011;23621;50.878;4.584;2023-05-07T04:41:51;7.28;;;6.22;;
37781;SDS011;23621;50.878;4.584;2023-05-07T04:44:38;7.68;;;6.50;;
37781;SDS011;23621;50.878;4.584;2023-05-07T04:47:25;7.30;;;6.60;;
37781;SDS011;23621;50.878;4.584;2023-05-07T04:50:13;7.70;;;6.78;;
37781;SDS011;23621;50.878;4.584;2023-05-07T04:53:00;6.88;;;6.15;;
37781;SDS011;23621;50.878;4.584;2023-05-07T04:55:47;7.57;;;6.80;;
37781;SDS011;23621;50.878;4.584;2023-05-07T04:58:35;7.20;;;6.55;;
37781;SDS011;23621;50.878;4.584;2023-05-07T05:01:22;8.80;;;7.30;;
37781;SDS011;23621;50.878;4.584;2023-05-07T05:04:09;8.55;;;7.53;;
37781;SDS011;23621;50.878;4.584;2023-05-07T05:06:57;10.90;;;7.00;;
37781;SDS011;23621;50.878;4.584;2023-05-07T05:09:45;8.77;;;7.00;;
37781;SDS011;23621;50.878;4.584;2023-05-07T05:12:32;7.97;;;6.72;;
37781;SDS011;23621;50.878;4.584;2023-05-07T05:15:19;7.43;;;6.35;;
37781;SDS011;23621;50.878;4.584;2023-05-07T05:18:06;7.47;;;5.95;;
37781;SDS011;23621;50.878;4.584;2023-05-07T05:20:54;7.50;;;6.30;;
37781;SDS011;23621;50.878;4.584;2023-05-07T05:23:41;7.57;;;6.15;;
37781;SDS011;23621;50.878;4.584;2023-05-07T05:26:28;9.45;;;7.18;;
37781;SDS011;23621;50.878;4.584;2023-05-07T05:29:16;8.25;;;7.35;;
37781;SDS011;23621;50.878;4.584;2023-05-07T05:32:03;7.53;;;6.65;;
37781;SDS011;23621;50.878;4.584;2023-05-07T05:34:50;8.73;;;6.53;;
37781;SDS011;23621;50.878;4.584;2023-05-07T05:37:37;8.77;;;6.95;;
37781;SDS011;23621;50.878;4.584;2023-05-07T05:40:25;10.88;;;7.63;;
37781;SDS011;23621;50.878;4.584;2023-05-07T05:43:13;9.10;;;7.97;;
37781;SDS011;23621;50.878;4.584;2023-05-07T05:46:00;9.68;;;7.72;;
37781;SDS011;23621;50.878;4.584;2023-05-07T05:48:48;8.60;;;7.68;;
37781;SDS011;23621;50.878;4.584;2023-05-07T05:51:35;10.50;;;7.88;;
37781;SDS011;23621;50.878;4.584;2023-05-07T05:54:22;8.30;;;7.50;;
37781;SDS011;23621;50.878;4.584;2023-05-07T05:57:09;8.95;;;7.57;;
37781;SDS011;23621;50.878;4.584;2023-05-07T05:59:57;8.55;;;7.10;;
37781;SDS011;23621;50.878;4.584;2023-05-07T06:02:44;9.23;;;7.38;;
37781;SDS011;23621;50.878;4.584;2023-05-07T06:05:31;8.52;;;7.53;;
37781;SDS011;23621;50.878;4.584;2023-05-07T06:08:19;9.63;;;7.40;;
37781;SDS011;23621;50.878;4.584;2023-05-07T06:11:06;9.35;;;7.80;;
37781;SDS011;23621;50.878;4.584;2023-05-07T06:13:53;9.00;;;7.75;;
37781;SDS011;23621;50.878;4.584;2023-05-07T06:16:41;9.05;;;7.22;;
37781;SDS011;23621;50.878;4.584;2023-05-07T06:19:28;7.68;;;6.82;;
37781;SDS011;23621;50.878;4.584;2023-05-07T06:22:15;8.02;;;7.22;;
37781;SDS011;23621;50.878;4.584;2023-05-07T06:25:03;10.15;;;7.38;;
37781;SDS011;23621;50.878;4.584;2023-05-07T06:27:50;10.02;;;8.20;;
37781;SDS011;23621;50.878;4.584;2023-05-07T06:30:37;9.43;;;7.15;;
37781;SDS011;23621;50.878;4.584;2023-05-07T06:33:24;9.88;;;6.97;;
37781;SDS011;23621;50.878;4.584;2023-05-07T06:36:12;9.13;;;6.72;;
37781;SDS011;23621;50.878;4.584;2023-05-07T06:38:59;11.52;;;6.25;;
37781;SDS011;23621;50.878;4.584;2023-05-07T06:41:46;7.88;;;6.25;;
37781;SDS011;23621;50.878;4.584;2023-05-07T06:44:34;8.88;;;5.65;;
37781;SDS011;23621;50.878;4.584;2023-05-07T06:47:21;11.57;;;6.20;;
37781;SDS011;23621;50.878;4.584;2023-05-07T06:50:08;9.15;;;5.53;;
37781;SDS011;23621;50.878;4.584;2023-05-07T06:52:56;7.85;;;5.32;;
37781;SDS011;23621;50.878;4.584;2023-05-07T06:55:43;7.82;;;5.22;;
37781;SDS011;23621;50.878;4.584;2023-05-07T06:58:31;7.95;;;4.85;;
37781;SDS011;23621;50.878;4.584;2023-05-07T07:01:18;8.88;;;4.82;;
37781;SDS011;23621;50.878;4.584;2023-05-07T07:04:05;8.63;;;4.50;;
37781;SDS011;23621;50.878;4.584;2023-05-07T07:06:53;7.45;;;4.95;;
37781;SDS011;23621;50.878;4.584;2023-05-07T07:09:41;9.35;;;4.43;;
37781;SDS011;23621;50.878;4.584;2023-05-07T07:12:28;6.88;;;4.40;;
37781;SDS011;23621;50.878;4.584;2023-05-07T07:15:16;6.38;;;4.05;;
37781;SDS011;23621;50.878;4.584;2023-05-07T07:18:03;6.65;;;3.78;;
37781;SDS011;23621;50.878;4.584;2023-05-07T07:20:51;6.55;;;3.50;;
37781;SDS011;23621;50.878;4.584;2023-05-07T07:23:38;5.10;;;3.75;;
37781;SDS011;23621;50.878;4.584;2023-05-07T07:26:25;4.88;;;3.42;;
37781;SDS011;23621;50.878;4.584;2023-05-07T07:29:12;4.90;;;3.20;;
37781;SDS011;23621;50.878;4.584;2023-05-07T07:32:00;4.55;;;2.72;;
37781;SDS011;23621;50.878;4.584;2023-05-07T07:34:47;3.72;;;2.85;;
37781;SDS011;23621;50.878;4.584;2023-05-07T07:37:34;3.80;;;2.55;;
37781;SDS011;23621;50.878;4.584;2023-05-07T07:40:22;5.25;;;2.83;;
37781;SDS011;23621;50.878;4.584;2023-05-07T07:43:09;4.00;;;3.15;;
37781;SDS011;23621;50.878;4.584;2023-05-07T07:45:56;5.00;;;2.72;;
37781;SDS011;23621;50.878;4.584;2023-05-07T07:48:43;5.03;;;3.03;;
37781;SDS011;23621;50.878;4.584;2023-05-07T07:51:31;7.93;;;3.20;;
37781;SDS011;23621;50.878;4.584;2023-05-07T07:54:18;4.40;;;2.92;;
37781;SDS011;23621;50.878;4.584;2023-05-07T07:57:05;4.28;;;3.08;;
37781;SDS011;23621;50.878;4.584;2023-05-07T07:59:52;7.60;;;3.28;;
37781;SDS011;23621;50.878;4.584;2023-05-07T08:02:39;5.75;;;3.60;;
37781;SDS011;23621;50.878;4.584;2023-05-07T08:05:27;6.05;;;3.38;;
37781;SDS011;23621;50.878;4.584;2023-05-07T08:08:14;3.97;;;3.15;;
37781;SDS011;23621;50.878;4.584;2023-05-07T08:11:02;5.00;;;3.28;;
37781;SDS011;23621;50.878;4.584;2023-05-07T08:13:49;4.38;;;3.35;;
37781;SDS011;23621;50.878;4.584;2023-05-07T08:16:36;5.18;;;3.40;;
37781;SDS011;23621;50.878;4.584;2023-05-07T08:19:24;6.22;;;3.75;;
37781;SDS011;23621;50.878;4.584;2023-05-07T08:22:11;4.28;;;3.42;;
37781;SDS011;23621;50.878;4.584;2023-05-07T08:24:59;7.75;;;3.83;;
37781;SDS011;23621;50.878;4.584;2023-05-07T08:27:46;4.30;;;3.78;;
37781;SDS011;23621;50.878;4.584;2023-05-07T08:30:34;7.75;;;4.03;;
37781;SDS011;23621;50.878;4.584;2023-05-07T08:33:21;3.92;;;3.55;;
37781;SDS011;23621;50.878;4.584;2023-05-07T08:36:08;6.30;;;3.85;;
37781;SDS011;23621;50.878;4.584;2023-05-07T08:38:55;5.13;;;3.60;;
37781;SDS011;23621;50.878;4.584;2023-05-07T08:41:44;6.47;;;3.60;;
37781;SDS011;23621;50.878;4.584;2023-05-07T08:44:33;7.25;;;4.03;;
37781;SDS011;23621;50.878;4.584;2023-05-07T08:47:23;6.38;;;3.92;;
37781;SDS011;23621;50.878;4.584;2023-05-07T08:50:16;6.47;;;4.00;;
37781;SDS011;23621;50.878;4.584;2023-05-07T08:53:04;4.43;;;3.80;;
37781;SDS011;23621;50.878;4.584;2023-05-07T08:55:51;6.40;;;4.15;;
37781;SDS011;23621;50.878;4.584;2023-05-07T08:58:39;4.20;;;3.80;;
37781;SDS011;23621;50.878;4.584;2023-05-07T09:01:26;7.72;;;4.18;;
37781;SDS011;23621;50.878;4.584;2023-05-07T09:04:14;6.00;;;4.40;;
37781;SDS011;23621;50.878;4.584;2023-05-07T09:07:01;6.35;;;3.72;;
37781;SDS011;23621;50.878;4.584;2023-05-07T09:09:52;4.65;;;3.80;;
37781;SDS011;23621;50.878;4.584;2023-05-07T09:12:41;5.20;;;4.22;;
37781;SDS011;23621;50.878;4.584;2023-05-07T09:15:28;5.07;;;4.50;;
37781;SDS011;23621;50.878;4.584;2023-05-07T09:18:15;3.95;;;3.53;;
37781;SDS011;23621;50.878;4.584;2023-05-07T09:21:03;4.07;;;3.63;;
37781;SDS011;23621;50.878;4.584;2023-05-07T09:23:50;5.47;;;3.67;;
37781;SDS011;23621;50.878;4.584;2023-05-07T09:26:39;6.03;;;3.97;;
37781;SDS011;23621;50.878;4.584;2023-05-07T09:29:26;4.80;;;3.88;;
37781;SDS011;23621;50.878;4.584;2023-05-07T09:32:16;5.75;;;3.60;;
37781;SDS011;23621;50.878;4.584;2023-05-07T09:35:04;6.63;;;4.25;;
37781;SDS011;23621;50.878;4.584;2023-05-07T09:37:52;6.25;;;4.00;;
37781;SDS011;23621;50.878;4.584;2023-05-07T09:40:40;7.20;;;3.92;;
37781;SDS011;23621;50.878;4.584;2023-05-07T09:43:27;6.82;;;4.07;;
37781;SDS011;23621;50.878;4.584;2023-05-07T09:46:19;5.00;;;4.50;;
37781;SDS011;23621;50.878;4.584;2023-05-07T09:49:21;5.03;;;3.88;;
37781;SDS011;23621;50.878;4.584;2023-05-07T09:52:09;6.88;;;4.00;;
37781;SDS011;23621;50.878;4.584;2023-05-07T09:54:57;8.60;;;3.92;;
37781;SDS011;23621;50.878;4.584;2023-05-07T09:57:45;5.32;;;3.72;;
37781;SDS011;23621;50.878;4.584;2023-05-07T10:00:34;5.25;;;4.15;;
37781;SDS011;23621;50.878;4.584;2023-05-07T10:03:22;5.90;;;4.25;;
37781;SDS011;23621;50.878;4.584;2023-05-07T10:06:13;6.10;;;3.60;;
37781;SDS011;23621;50.878;4.584;2023-05-07T10:09:02;6.93;;;4.00;;
37781;SDS011;23621;50.878;4.584;2023-05-07T10:11:49;6.93;;;3.38;;
37781;SDS011;23621;50.878;4.584;2023-05-07T10:14:37;5.18;;;3.40;;
37781;SDS011;23621;50.878;4.584;2023-05-07T10:17:25;6.20;;;3.22;;
37781;SDS011;23621;50.878;4.584;2023-05-07T10:20:13;5.50;;;3.92;;
37781;SDS011;23621;50.878;4.584;2023-05-07T10:23:00;6.43;;;3.50;;
37781;SDS011;23621;50.878;4.584;2023-05-07T10:25:51;6.80;;;4.53;;
37781;SDS011;23621;50.878;4.584;2023-05-07T10:28:47;8.40;;;3.92;;
37781;SDS011;23621;50.878;4.584;2023-05-07T10:34:37;7.60;;;6.20;;
37781;SDS011;23621;50.878;4.584;2023-05-07T10:37:28;10.65;;;5.63;;
37781;SDS011;23621;50.878;4.584;2023-05-07T10:40:16;7.95;;;6.05;;
37781;SDS011;23621;50.878;4.584;2023-05-07T10:43:06;6.18;;;4.50;;
37781;SDS011;23621;50.878;4.584;2023-05-07T10:46:09;5.93;;;3.90;;
37781;SDS011;23621;50.878;4.584;2023-05-07T11:01:28;4.38;;;2.78;;
37781;SDS011;23621;50.878;4.584;2023-05-07T11:04:38;4.15;;;3.00;;
37781;SDS011;23621;50.878;4.584;2023-05-07T11:07:29;5.28;;;2.80;;
37781;SDS011;23621;50.878;4.584;2023-05-07T11:10:17;4.80;;;3.70;;
37781;SDS011;23621;50.878;4.584;2023-05-07T11:13:04;5.10;;;2.88;;
37781;SDS011;23621;50.878;4.584;2023-05-07T11:15:52;2.90;;;2.70;;
37781;SDS011;23621;50.878;4.584;2023-05-07T11:18:55;3.40;;;2.50;;
37781;SDS011;23621;50.878;4.584;2023-05-07T11:21:43;3.58;;;2.58;;
37781;SDS011;23621;50.878;4.584;2023-05-07T11:24:30;3.05;;;2.60;;
37781;SDS011;23621;50.878;4.584;2023-05-07T11:27:29;4.28;;;2.47;;
37781;SDS011;23621;50.878;4.584;2023-05-07T11:30:16;3.47;;;2.80;;
37781;SDS011;23621;50.878;4.584;2023-05-07T11:33:07;4.80;;;3.00;;
37781;SDS011;23621;50.878;4.584;2023-05-07T11:35:55;3.58;;;2.72;;
37781;SDS011;23621;50.878;4.584;2023-05-07T11:38:43;3.67;;;2.40;;
37781;SDS011;23621;50.878;4.584;2023-05-07T11:41:34;3.38;;;2.78;;
37781;SDS011;23621;50.878;4.584;2023-05-07T11:44:25;2.97;;;2.67;;
37781;SDS011;23621;50.878;4.584;2023-05-07T11:47:25;4.13;;;2.40;;
37781;SDS011;23621;50.878;4.584;2023-05-07T11:50:12;5.38;;;2.80;;
37781;SDS011;23621;50.878;4.584;2023-05-07T11:53:00;4.15;;;2.28;;
37781;SDS011;23621;50.878;4.584;2023-05-07T11:55:56;4.82;;;2.65;;
37781;SDS011;23621;50.878;4.584;2023-05-07T11:58:44;4.68;;;2.60;;
37781;SDS011;23621;50.878;4.584;2023-05-07T12:01:35;2.65;;;2.40;;
37781;SDS011;23621;50.878;4.584;2023-05-07T12:04:22;4.53;;;2.63;;
37781;SDS011;23621;50.878;4.584;2023-05-07T12:07:13;3.47;;;2.60;;
37781;SDS011;23621;50.878;4.584;2023-05-07T12:10:05;3.20;;;2.40;;
37781;SDS011;23621;50.878;4.584;2023-05-07T12:12:53;3.25;;;2.67;;
37781;SDS011;23621;50.878;4.584;2023-05-07T12:15:40;4.18;;;2.50;;
37781;SDS011;23621;50.878;4.584;2023-05-07T12:18:28;4.85;;;2.92;;
37781;SDS011;23621;50.878;4.584;2023-05-07T12:21:16;3.20;;;2.30;;
37781;SDS011;23621;50.878;4.584;2023-05-07T12:24:04;2.55;;;2.10;;
37781;SDS011;23621;50.878;4.584;2023-05-07T12:26:52;4.93;;;2.95;;
37781;SDS011;23621;50.878;4.584;2023-05-07T12:29:39;4.50;;;2.45;;
37781;SDS011;23621;50.878;4.584;2023-05-07T12:32:32;3.28;;;2.53;;
37781;SDS011;23621;50.878;4.584;2023-05-07T12:35:27;4.10;;;2.20;;
37781;SDS011;23621;50.878;4.584;2023-05-07T12:38:18;2.38;;;2.17;;
37781;SDS011;23621;50.878;4.584;2023-05-07T12:41:06;3.83;;;2.30;;
37781;SDS011;23621;50.878;4.584;2023-05-07T12:43:56;4.72;;;2.42;;
37781;SDS011;23621;50.878;4.584;2023-05-07T12:46:44;2.30;;;2.10;;
37781;SDS011;23621;50.878;4.584;2023-05-07T12:49:34;2.40;;;2.20;;
37781;SDS011;23621;50.878;4.584;2023-05-07T12:52:24;2.50;;;2.25;;
37781;SDS011;23621;50.878;4.584;2023-05-07T12:55:12;3.13;;;2.30;;
37781;SDS011;23621;50.878;4.584;2023-05-07T12:58:01;5.20;;;2.30;;
37781;SDS011;23621;50.878;4.584;2023-05-07T13:00:49;2.80;;;2.50;;
37781;SDS011;23621;50.878;4.584;2023-05-07T13:03:38;3.80;;;2.22;;
37781;SDS011;23621;50.878;4.584;2023-05-07T13:06:25;2.78;;;2.15;;
37781;SDS011;23621;50.878;4.584;2023-05-07T13:09:13;2.67;;;2.42;;
37781;SDS011;23621;50.878;4.584;2023-05-07T13:12:00;3.28;;;2.35;;
37781;SDS011;23621;50.878;4.584;2023-05-07T13:14:48;3.47;;;2.60;;
37781;SDS011;23621;50.878;4.584;2023-05-07T13:17:35;2.55;;;2.13;;
37781;SDS011;23621;50.878;4.584;2023-05-07T13:20:23;4.20;;;2.45;;
37781;SDS011;23621;50.878;4.584;2023-05-07T13:23:10;3.60;;;2.50;;
37781;SDS011;23621;50.878;4.584;2023-05-07T13:25:57;2.47;;;2.08;;
37781;SDS011;23621;50.878;4.584;2023-05-07T13:28:49;2.63;;;2.30;;
37781;SDS011;23621;50.878;4.584;2023-05-07T13:31:37;4.25;;;2.20;;
37781;SDS011;23621;50.878;4.584;2023-05-07T13:34:28;2.58;;;2.38;;
37781;SDS011;23621;50.878;4.584;2023-05-07T13:37:16;3.22;;;2.08;;
37781;SDS011;23621;50.878;4.584;2023-05-07T13:40:03;3.28;;;2.30;;
37781;SDS011;23621;50.878;4.584;2023-05-07T13:42:51;3.30;;;2.50;;
37781;SDS011;23621;50.878;4.584;2023-05-07T13:45:38;4.47;;;2.50;;
37781;SDS011;23621;50.878;4.584;2023-05-07T13:48:26;2.78;;;2.22;;
37781;SDS011;23621;50.878;4.584;2023-05-07T13:51:15;2.88;;;2.33;;
37781;SDS011;23621;50.878;4.584;2023-05-07T13:54:03;4.38;;;2.50;;
37781;SDS011;23621;50.878;4.584;2023-05-07T13:56:51;3.53;;;2.17;;
37781;SDS011;23621;50.878;4.584;2023-05-07T13:59:38;3.67;;;2.42;;
37781;SDS011;23621;50.878;4.584;2023-05-07T14:02:25;2.42;;;2.22;;
37781;SDS011;23621;50.878;4.584;2023-05-07T14:05:12;3.78;;;2.38;;
37781;SDS011;23621;50.878;4.584;2023-05-07T14:08:00;6.43;;;2.47;;
37781;SDS011;23621;50.878;4.584;2023-05-07T14:10:47;3.08;;;2.28;;
37781;SDS011;23621;50.878;4.584;2023-05-07T14:13:34;2.53;;;2.17;;
37781;SDS011;23621;50.878;4.584;2023-05-07T14:16:22;4.38;;;2.65;;
37781;SDS011;23621;50.878;4.584;2023-05-07T14:19:09;2.55;;;2.35;;
37781;SDS011;23621;50.878;4.584;2023-05-07T14:21:57;3.42;;;2.22;;
37781;SDS011;23621;50.878;4.584;2023-05-07T14:24:45;2.80;;;2.53;;
37781;SDS011;23621;50.878;4.584;2023-05-07T14:27:41;3.40;;;2.95;;
37781;SDS011;23621;50.878;4.584;2023-05-07T14:30:29;3.00;;;2.70;;
37781;SDS011;23621;50.878;4.584;2023-05-07T14:33:16;4.00;;;2.88;;
37781;SDS011;23621;50.878;4.584;2023-05-07T14:36:04;3.40;;;3.10;;
37781;SDS011;23621;50.878;4.584;2023-05-07T14:38:52;3.40;;;2.85;;
37781;SDS011;23621;50.878;4.584;2023-05-07T14:41:42;3.47;;;3.08;;
37781;SDS011;23621;50.878;4.584;2023-05-07T14:44:29;8.43;;;3.33;;
37781;SDS011;23621;50.878;4.584;2023-05-07T14:47:17;3.70;;;3.40;;
37781;SDS011;23621;50.878;4.584;2023-05-07T14:50:05;4.30;;;3.38;;
37781;SDS011;23621;50.878;4.584;2023-05-07T14:52:53;3.55;;;3.25;;
37781;SDS011;23621;50.878;4.584;2023-05-07T14:55:40;3.90;;;3.58;;
37781;SDS011;23621;50.878;4.584;2023-05-07T14:58:27;5.45;;;4.00;;
37781;SDS011;23621;50.878;4.584;2023-05-07T15:01:14;4.25;;;3.85;;
37781;SDS011;23621;50.878;4.584;2023-05-07T15:04:05;4.10;;;3.70;;
37781;SDS011;23621;50.878;4.584;2023-05-07T15:06:52;4.80;;;4.22;;
37781;SDS011;23621;50.878;4.584;2023-05-07T15:09:42;4.25;;;3.85;;
37781;SDS011;23621;50.878;4.584;2023-05-07T15:12:30;4.82;;;4.43;;
37781;SDS011;23621;50.878;4.584;2023-05-07T15:15:17;5.75;;;5.10;;
37781;SDS011;23621;50.878;4.584;2023-05-07T15:18:05;4.97;;;4.47;;
37781;SDS011;23621;50.878;4.584;2023-05-07T15:20:52;5.35;;;4.85;;
37781;SDS011;23621;50.878;4.584;2023-05-07T15:23:39;7.32;;;5.18;;
37781;SDS011;23621;50.878;4.584;2023-05-07T15:26:27;6.40;;;5.80;;
37781;SDS011;23621;50.878;4.584;2023-05-07T15:29:15;5.80;;;5.18;;
37781;SDS011;23621;50.878;4.584;2023-05-07T15:32:03;6.28;;;5.68;;
37781;SDS011;23621;50.878;4.584;2023-05-07T15:34:50;7.00;;;5.93;;
37781;SDS011;23621;50.878;4.584;2023-05-07T15:37:38;7.25;;;6.38;;
37781;SDS011;23621;50.878;4.584;2023-05-07T15:40:25;7.20;;;6.18;;
37781;SDS011;23621;50.878;4.584;2023-05-07T15:43:12;6.82;;;6.25;;
37781;SDS011;23621;50.878;4.584;2023-05-07T15:45:59;5.85;;;5.35;;
37781;SDS011;23621;50.878;4.584;2023-05-07T15:48:47;5.65;;;5.05;;
37781;SDS011;23621;50.878;4.584;2023-05-07T15:51:34;6.35;;;5.70;;
37781;SDS011;23621;50.878;4.584;2023-05-07T15:54:22;5.78;;;5.22;;
37781;SDS011;23621;50.878;4.584;2023-05-07T15:57:10;6.47;;;5.57;;
37781;SDS011;23621;50.878;4.584;2023-05-07T15:59:58;6.15;;;5.55;;
37781;SDS011;23621;50.878;4.584;2023-05-07T16:02:45;6.57;;;5.97;;
37781;SDS011;23621;50.878;4.584;2023-05-07T16:05:33;6.85;;;5.85;;
37781;SDS011;23621;50.878;4.584;2023-05-07T16:08:20;6.75;;;6.07;;
37781;SDS011;23621;50.878;4.584;2023-05-07T16:11:07;7.15;;;6.28;;
37781;SDS011;23621;50.878;4.584;2023-05-07T16:13:55;7.07;;;6.38;;
37781;SDS011;23621;50.878;4.584;2023-05-07T16:16:42;7.03;;;6.32;;
37781;SDS011;23621;50.878;4.584;2023-05-07T16:19:29;7.65;;;6.85;;
37781;SDS011;23621;50.878;4.584;2023-05-07T16:22:17;7.40;;;6.70;;
37781;SDS011;23621;50.878;4.584;2023-05-07T16:25:04;7.90;;;7.18;;
37781;SDS011;23621;50.878;4.584;2023-05-07T16:27:52;7.50;;;6.90;;
37781;SDS011;23621;50.878;4.584;2023-05-07T16:30:41;7.60;;;6.90;;
37781;SDS011;23621;50.878;4.584;2023-05-07T16:33:28;6.82;;;6.22;;
37781;SDS011;23621;50.878;4.584;2023-05-07T16:36:15;6.70;;;6.10;;
37781;SDS011;23621;50.878;4.584;2023-05-07T16:39:03;5.82;;;5.32;;
37781;SDS011;23621;50.878;4.584;2023-05-07T16:41:50;5.78;;;5.38;;
37781;SDS011;23621;50.878;4.584;2023-05-07T16:44:37;5.47;;;5.07;;
37781;SDS011;23621;50.878;4.584;2023-05-07T16:47:25;5.18;;;4.68;;
37781;SDS011;23621;50.878;4.584;2023-05-07T16:50:13;5.72;;;5.25;;
37781;SDS011;23621;50.878;4.584;2023-05-07T16:53:00;5.95;;;5.00;;
37781;SDS011;23621;50.878;4.584;2023-05-07T16:55:47;5.63;;;5.13;;
37781;SDS011;23621;50.878;4.584;2023-05-07T16:58:35;6.47;;;5.88;;
37781;SDS011;23621;50.878;4.584;2023-05-07T17:01:22;6.70;;;5.40;;
37781;SDS011;23621;50.878;4.584;2023-05-07T17:04:09;6.53;;;5.93;;
37781;SDS011;23621;50.878;4.584;2023-05-07T17:06:57;6.22;;;5.63;;
37781;SDS011;23621;50.878;4.584;2023-05-07T17:09:44;7.07;;;6.00;;